createdAt,value
2016-05-21T00:00:12.686Z,1014.16
2016-05-21T00:01:12.719Z,1014.09
2016-05-21T00:02:12.737Z,1014.07
2016-05-21T00:03:12.772Z,1014.07
2016-05-21T00:04:12.789Z,1014.03
2016-05-21T00:05:12.824Z,1014.05
2016-05-21T00:06:12.841Z,1014.03
2016-05-21T00:07:12.861Z,1014.03
2016-05-21T00:08:12.894Z,1014.03
2016-05-21T00:09:12.913Z,1014.05
2016-05-21T00:10:12.946Z,1014.03
2016-05-21T00:11:12.977Z,1014.04
2016-05-21T00:12:13.011Z,1013.95
2016-05-21T00:13:13.060Z,1013.97
2016-05-21T00:14:13.094Z,1014
2016-05-21T00:15:13.144Z,1013.99
2016-05-21T00:16:13.171Z,1013.97
2016-05-21T00:17:13.195Z,1013.96
2016-05-21T00:18:13.235Z,1013.97
2016-05-21T00:19:13.258Z,1013.95
2016-05-21T00:20:13.298Z,1013.91
2016-05-21T00:21:13.319Z,1013.92
2016-05-21T00:22:13.341Z,1013.92
2016-05-21T00:23:13.376Z,1013.91
2016-05-21T00:24:13.398Z,1013.89
2016-05-21T00:25:13.433Z,1013.91
2016-05-21T00:26:13.453Z,1013.87
2016-05-21T00:27:13.488Z,1013.87
2016-05-21T00:28:13.507Z,1013.87
2016-05-21T00:29:13.525Z,1013.82
2016-05-21T00:30:13.559Z,1013.82
2016-05-21T00:31:13.579Z,1013.81
2016-05-21T00:32:13.613Z,1013.87
2016-05-21T00:33:13.631Z,1013.82
2016-05-21T00:34:13.650Z,1013.83
2016-05-21T00:35:13.684Z,1013.79
2016-05-21T00:36:13.701Z,1013.83
2016-05-21T00:37:13.736Z,1013.77
2016-05-21T00:38:13.754Z,1013.78
2016-05-21T00:39:13.772Z,1013.76
2016-05-21T00:40:13.806Z,1013.76
2016-05-21T00:41:13.950Z,1013.74
2016-05-21T00:42:13.858Z,1013.76
2016-05-21T00:43:13.877Z,1013.76
2016-05-21T00:44:13.910Z,1013.75
2016-05-21T00:45:13.930Z,1013.74
2016-05-21T00:46:13.948Z,1013.75
2016-05-21T00:47:13.981Z,1013.71
2016-05-21T00:48:14.000Z,1013.69
2016-05-21T00:49:14.033Z,1013.65
2016-05-21T00:50:14.052Z,1013.69
2016-05-21T00:51:14.071Z,1013.7
2016-05-21T00:52:14.104Z,1013.64
2016-05-21T00:53:14.122Z,1013.62
2016-05-21T00:54:14.156Z,1013.65
2016-05-21T00:55:14.174Z,1013.63
2016-05-21T00:56:14.193Z,1013.57
2016-05-21T00:57:14.226Z,1013.59
2016-05-21T00:58:14.245Z,1013.53
2016-05-21T00:59:14.279Z,1013.57
2016-05-21T01:00:14.298Z,1013.55
2016-05-21T01:01:14.316Z,1013.58
2016-05-21T01:02:14.350Z,1013.57
2016-05-21T01:03:14.368Z,1013.59
2016-05-21T01:04:14.402Z,1013.59
2016-05-21T01:05:14.436Z,1013.59
2016-05-21T01:06:14.439Z,1013.54
2016-05-21T01:07:14.473Z,1013.52
2016-05-21T01:08:14.491Z,1013.53
2016-05-21T01:09:14.509Z,1013.53
2016-05-21T01:10:14.542Z,1013.54
2016-05-21T01:11:14.561Z,1013.54
2016-05-21T01:12:14.595Z,1013.52
2016-05-21T01:13:14.613Z,1013.51
2016-05-21T01:14:14.633Z,1013.52
2016-05-21T01:15:14.666Z,1013.54
2016-05-21T01:16:14.700Z,1013.48
2016-05-21T01:17:14.719Z,1013.5
2016-05-21T01:18:14.736Z,1013.48
2016-05-21T01:19:14.771Z,1013.46
2016-05-21T01:20:14.789Z,1013.47
2016-05-21T01:21:14.807Z,1013.44
2016-05-21T01:22:14.841Z,1013.48
2016-05-21T01:23:14.860Z,1013.4
2016-05-21T01:24:14.893Z,1013.43
2016-05-21T01:25:14.912Z,1013.42
2016-05-21T01:26:15.195Z,1013.43
2016-05-21T01:27:14.963Z,1013.45
2016-05-21T01:28:14.982Z,1013.42
2016-05-21T01:29:15.016Z,1013.42
2016-05-21T01:30:15.035Z,1013.37
2016-05-21T01:31:15.053Z,1013.39
2016-05-21T01:32:15.087Z,1013.39
2016-05-21T01:33:15.105Z,1013.43
2016-05-21T01:34:15.139Z,1013.39
2016-05-21T01:35:15.157Z,1013.43
2016-05-21T01:36:15.192Z,1013.42
2016-05-21T01:37:15.209Z,1013.39
2016-05-21T01:38:15.228Z,1013.37
2016-05-21T01:39:15.262Z,1013.36
2016-05-21T01:40:15.280Z,1013.4
2016-05-21T01:41:15.298Z,1013.4
2016-05-21T01:42:15.333Z,1013.4
2016-05-21T01:43:15.351Z,1013.42
2016-05-21T01:44:15.385Z,1013.38
2016-05-21T01:45:15.403Z,1013.37
2016-05-21T01:46:15.422Z,1013.4
2016-05-21T01:47:15.455Z,1013.31
2016-05-21T01:48:15.474Z,1013.31
2016-05-21T01:49:15.508Z,1013.32
2016-05-21T01:50:15.525Z,1013.32
2016-05-21T01:51:15.544Z,1013.29
2016-05-21T01:52:15.577Z,1013.29
2016-05-21T01:53:15.596Z,1013.28
2016-05-21T01:54:15.630Z,1013.32
2016-05-21T01:55:15.649Z,1013.33
2016-05-21T01:56:15.667Z,1013.36
2016-05-21T01:57:15.701Z,1013.34
2016-05-21T01:58:15.719Z,1013.37
2016-05-21T01:59:15.754Z,1013.41
2016-05-21T02:00:15.771Z,1013.37
2016-05-21T02:01:15.805Z,1013.38
2016-05-21T02:02:15.823Z,1013.33
2016-05-21T02:03:15.842Z,1013.38
2016-05-21T02:04:15.876Z,1013.4
2016-05-21T02:05:15.894Z,1013.4
2016-05-21T02:06:15.912Z,1013.42
2016-05-21T02:07:15.946Z,1013.36
2016-05-21T02:08:15.964Z,1013.35
2016-05-21T02:09:15.998Z,1013.37
2016-05-21T02:10:16.017Z,1013.38
2016-05-21T02:11:16.036Z,1013.41
2016-05-21T02:12:16.070Z,1013.37
2016-05-21T02:13:16.087Z,1013.38
2016-05-21T02:14:16.122Z,1013.4
2016-05-21T02:15:16.140Z,1013.4
2016-05-21T02:16:16.174Z,1013.4
2016-05-21T02:17:16.192Z,1013.42
2016-05-21T02:18:16.210Z,1013.38
2016-05-21T02:19:16.244Z,1013.41
2016-05-21T02:20:16.263Z,1013.42
2016-05-21T02:21:16.297Z,1013.4
2016-05-21T02:22:16.315Z,1013.39
2016-05-21T02:23:16.349Z,1013.4
2016-05-21T02:24:16.367Z,1013.41
2016-05-21T02:25:16.386Z,1013.43
2016-05-21T02:26:16.419Z,1013.41
2016-05-21T02:27:16.437Z,1013.44
2016-05-21T02:28:16.472Z,1013.37
2016-05-21T02:29:16.490Z,1013.4
2016-05-21T02:30:16.508Z,1013.31
2016-05-21T02:31:16.543Z,1013.34
2016-05-21T02:32:16.576Z,1013.32
2016-05-21T02:33:16.595Z,1013.29
2016-05-21T02:34:16.612Z,1013.32
2016-05-21T02:35:16.632Z,1013.3
2016-05-21T02:36:16.664Z,1013.33
2016-05-21T02:37:16.684Z,1013.32
2016-05-21T02:38:16.718Z,1013.29
2016-05-21T02:39:16.736Z,1013.29
2016-05-21T02:40:16.770Z,1013.33
2016-05-21T02:41:16.803Z,1013.28
2016-05-21T02:42:16.806Z,1013.28
2016-05-21T02:43:16.840Z,1013.28
2016-05-21T02:44:16.858Z,1013.26
2016-05-21T02:45:16.877Z,1013.27
2016-05-21T02:46:16.910Z,1013.21
2016-05-21T02:47:16.928Z,1013.2
2016-05-21T02:48:16.963Z,1013.21
2016-05-21T02:49:16.981Z,1013.21
2016-05-21T02:50:17.016Z,1013.16
2016-05-21T02:51:17.049Z,1013.18
2016-05-21T02:52:17.067Z,1013.1
2016-05-21T02:53:17.086Z,1013.08
2016-05-21T02:54:17.119Z,1013.07
2016-05-21T02:55:17.482Z,1013.04
2016-05-21T02:56:17.157Z,1013.05
2016-05-21T02:57:17.174Z,1013.07
2016-05-21T02:58:17.208Z,1013.04
2016-05-21T02:59:17.227Z,1013.05
2016-05-21T03:00:17.261Z,1013.07
2016-05-21T03:01:17.279Z,1013.03
2016-05-21T03:02:17.297Z,1012.98
2016-05-21T03:03:17.332Z,1013.02
2016-05-21T03:04:17.349Z,1012.95
2016-05-21T03:05:17.384Z,1012.97
2016-05-21T03:06:17.401Z,1012.93
2016-05-21T03:07:17.436Z,1012.94
2016-05-21T03:08:17.454Z,1012.93
2016-05-21T03:09:17.473Z,1012.98
2016-05-21T03:10:17.506Z,1012.93
2016-05-21T03:11:17.525Z,1012.91
2016-05-21T03:12:17.543Z,1012.95
2016-05-21T03:13:17.577Z,1012.89
2016-05-21T03:14:17.595Z,1012.88
2016-05-21T03:15:17.629Z,1012.91
2016-05-21T03:16:17.647Z,1012.87
2016-05-21T03:17:17.681Z,1012.87
2016-05-21T03:18:17.700Z,1012.84
2016-05-21T03:19:17.733Z,1012.82
2016-05-21T03:20:17.753Z,1012.78
2016-05-21T03:21:17.770Z,1012.76
2016-05-21T03:22:17.805Z,1012.82
2016-05-21T03:23:17.823Z,1012.77
2016-05-21T03:24:17.857Z,1012.77
2016-05-21T03:25:17.875Z,1012.76
2016-05-21T03:26:17.893Z,1012.76
2016-05-21T03:27:17.928Z,1012.8
2016-05-21T03:28:17.946Z,1012.82
2016-05-21T03:29:17.979Z,1012.76
2016-05-21T03:30:17.998Z,1012.8
2016-05-21T03:31:18.016Z,1012.75
2016-05-21T03:32:18.049Z,1012.74
2016-05-21T03:33:18.068Z,1012.75
2016-05-21T03:34:18.102Z,1012.77
2016-05-21T03:35:18.121Z,1012.77
2016-05-21T03:36:18.154Z,1012.79
2016-05-21T03:37:18.173Z,1012.79
2016-05-21T03:38:18.191Z,1012.8
2016-05-21T03:39:18.225Z,1012.82
2016-05-21T03:40:18.243Z,1012.79
2016-05-21T03:41:18.278Z,1012.81
2016-05-21T03:42:18.295Z,1012.79
2016-05-21T03:43:18.314Z,1012.81
2016-05-21T03:44:18.348Z,1012.78
2016-05-21T03:45:18.366Z,1012.84
2016-05-21T03:46:18.400Z,1012.84
2016-05-21T03:47:18.419Z,1012.8
2016-05-21T03:48:18.453Z,1012.77
2016-05-21T03:49:18.470Z,1012.79
2016-05-21T03:50:18.489Z,1012.79
2016-05-21T03:51:18.523Z,1012.84
2016-05-21T03:52:18.541Z,1012.86
2016-05-21T03:53:18.575Z,1012.84
2016-05-21T03:54:18.594Z,1012.83
2016-05-21T03:55:18.611Z,1012.81
2016-05-21T03:56:18.818Z,1012.8
2016-05-21T03:57:18.664Z,1012.8
2016-05-21T03:58:18.699Z,1012.84
2016-05-21T03:59:18.716Z,1012.9
2016-05-21T04:00:18.735Z,1012.92
2016-05-21T04:01:18.768Z,1012.87
2016-05-21T04:02:18.802Z,1012.88
2016-05-21T04:03:18.821Z,1012.85
2016-05-21T04:04:18.840Z,1012.85
2016-05-21T04:05:18.857Z,1012.83
2016-05-21T04:06:18.891Z,1012.83
2016-05-21T04:07:18.910Z,1012.83
2016-05-21T04:08:18.943Z,1012.81
2016-05-21T04:09:18.962Z,1012.77
2016-05-21T04:10:18.981Z,1012.77
2016-05-21T04:11:19.014Z,1012.73
2016-05-21T04:12:19.032Z,1012.77
2016-05-21T04:13:19.067Z,1012.8
2016-05-21T04:14:19.085Z,1012.83
2016-05-21T04:15:19.104Z,1012.85
2016-05-21T04:16:19.137Z,1012.83
2016-05-21T04:17:19.156Z,1012.84
2016-05-21T04:18:19.189Z,1012.85
2016-05-21T04:19:19.208Z,1012.84
2016-05-21T04:20:19.242Z,1012.84
2016-05-21T04:21:19.261Z,1012.82
2016-05-21T04:22:19.294Z,1012.81
2016-05-21T04:23:19.312Z,1012.78
2016-05-21T04:24:19.330Z,1012.79
2016-05-21T04:25:19.350Z,1012.78
2016-05-21T04:26:19.382Z,1012.78
2016-05-21T04:27:19.401Z,1012.78
2016-05-21T04:28:19.435Z,1012.79
2016-05-21T04:29:19.453Z,1012.78
2016-05-21T04:30:19.488Z,1012.82
2016-05-21T04:31:19.505Z,1012.85
2016-05-21T04:32:19.524Z,1012.87
2016-05-21T04:33:19.557Z,1012.83
2016-05-21T04:34:19.576Z,1012.83
2016-05-21T04:35:19.610Z,1012.87
2016-05-21T04:36:19.628Z,1012.85
2016-05-21T04:37:19.647Z,1012.84
2016-05-21T04:38:19.681Z,1012.85
2016-05-21T04:39:19.699Z,1012.86
2016-05-21T04:40:19.733Z,1012.89
2016-05-21T04:41:19.751Z,1012.87
2016-05-21T04:42:19.770Z,1012.86
2016-05-21T04:43:19.803Z,1012.86
2016-05-21T04:44:19.822Z,1012.83
2016-05-21T04:45:19.856Z,1012.82
2016-05-21T04:46:19.874Z,1012.8
2016-05-21T04:47:19.908Z,1012.83
2016-05-21T04:48:19.926Z,1012.79
2016-05-21T04:49:19.945Z,1012.8
2016-05-21T04:50:19.979Z,1012.76
2016-05-21T04:51:19.997Z,1012.72
2016-05-21T04:52:20.031Z,1012.67
2016-05-21T04:53:20.049Z,1012.62
2016-05-21T04:54:20.067Z,1012.63
2016-05-21T04:55:20.102Z,1012.67
2016-05-21T04:56:20.120Z,1012.68
2016-05-21T04:57:20.153Z,1012.65
2016-05-21T04:58:20.171Z,1012.63
2016-05-21T04:59:20.191Z,1012.68
2016-05-21T05:00:20.224Z,1012.68
2016-05-21T05:01:20.243Z,1012.69
2016-05-21T05:02:20.276Z,1012.68
2016-05-21T05:03:20.294Z,1012.72
2016-05-21T05:04:20.329Z,1012.72
2016-05-21T05:05:20.347Z,1012.76
2016-05-21T05:06:20.365Z,1012.73
2016-05-21T05:07:20.399Z,1012.74
2016-05-21T05:08:20.417Z,1012.7
2016-05-21T05:09:20.452Z,1012.7
2016-05-21T05:10:20.470Z,1012.73
2016-05-21T05:11:20.504Z,1012.73
2016-05-21T05:12:20.523Z,1012.72
2016-05-21T05:13:20.540Z,1012.7
2016-05-21T05:14:20.574Z,1012.68
2016-05-21T05:15:20.593Z,1012.65
2016-05-21T05:16:20.627Z,1012.66
2016-05-21T05:17:20.645Z,1012.67
2016-05-21T05:18:20.679Z,1012.69
2016-05-21T05:19:20.697Z,1012.65
2016-05-21T05:20:20.715Z,1012.7
2016-05-21T05:21:20.750Z,1012.71
2016-05-21T05:22:20.767Z,1012.71
2016-05-21T05:23:20.802Z,1012.75
2016-05-21T05:24:20.851Z,1012.7
2016-05-21T05:25:20.853Z,1012.71
2016-05-21T05:26:20.872Z,1012.65
2016-05-21T05:27:20.906Z,1012.65
2016-05-21T05:28:20.924Z,1012.66
2016-05-21T05:29:20.959Z,1012.65
2016-05-21T05:30:20.977Z,1012.62
2016-05-21T05:31:21.010Z,1012.64
2016-05-21T05:32:21.029Z,1012.7
2016-05-21T05:33:21.063Z,1012.7
2016-05-21T05:34:21.082Z,1012.74
2016-05-21T05:35:21.099Z,1012.71
2016-05-21T05:36:21.134Z,1012.71
2016-05-21T05:37:21.151Z,1012.73
2016-05-21T05:38:21.185Z,1012.71
2016-05-21T05:39:21.204Z,1012.7
2016-05-21T05:40:21.238Z,1012.75
2016-05-21T05:41:21.381Z,1012.78
2016-05-21T05:42:21.290Z,1012.74
2016-05-21T05:43:21.309Z,1012.82
2016-05-21T05:44:21.343Z,1012.75
2016-05-21T05:45:21.376Z,1012.71
2016-05-21T05:46:21.395Z,1012.71
2016-05-21T05:47:21.428Z,1012.71
2016-05-21T05:48:21.447Z,1012.8
2016-05-21T05:49:21.465Z,1012.76
2016-05-21T05:50:21.500Z,1012.8
2016-05-21T05:51:21.533Z,1012.84
2016-05-21T05:52:21.551Z,1012.86
2016-05-21T05:53:21.570Z,1012.85
2016-05-21T05:54:21.603Z,1012.81
2016-05-21T05:55:21.622Z,1012.83
2016-05-21T05:56:21.984Z,1012.84
2016-05-21T05:57:21.675Z,1012.82
2016-05-21T05:58:21.708Z,1012.83
2016-05-21T05:59:21.742Z,1012.8
2016-05-21T06:00:21.760Z,1012.82
2016-05-21T06:01:21.794Z,1012.84
2016-05-21T06:02:21.813Z,1012.82
2016-05-21T06:03:21.847Z,1012.81
2016-05-21T06:04:21.866Z,1012.74
2016-05-21T06:05:21.899Z,1012.75
2016-05-21T06:06:21.918Z,1012.71
2016-05-21T06:07:21.951Z,1012.73
2016-05-21T06:08:21.985Z,1012.73
2016-05-21T06:09:22.004Z,1012.7
2016-05-21T06:10:22.038Z,1012.74
2016-05-21T06:11:22.056Z,1012.76
2016-05-21T06:12:22.090Z,1012.79
2016-05-21T06:13:22.108Z,1012.81
2016-05-21T06:14:22.142Z,1012.81
2016-05-21T06:15:22.160Z,1012.81
2016-05-21T06:16:22.195Z,1012.88
2016-05-21T06:17:22.212Z,1012.88
2016-05-21T06:18:22.246Z,1012.92
2016-05-21T06:19:22.281Z,1012.93
2016-05-21T06:20:22.298Z,1012.94
2016-05-21T06:21:22.333Z,1012.93
2016-05-21T06:22:22.351Z,1012.98
2016-05-21T06:23:22.385Z,1013.02
2016-05-21T06:24:22.403Z,1012.94
2016-05-21T06:25:22.437Z,1012.96
2016-05-21T06:26:22.784Z,1012.93
2016-05-21T06:27:22.489Z,1012.95
2016-05-21T06:28:22.523Z,1012.96
2016-05-21T06:29:22.542Z,1012.97
2016-05-21T06:30:22.575Z,1012.95
2016-05-21T06:31:22.594Z,1012.97
2016-05-21T06:32:22.627Z,1012.98
2016-05-21T06:33:22.646Z,1012.92
2016-05-21T06:34:22.680Z,1012.9
2016-05-21T06:35:22.714Z,1012.92
2016-05-21T06:36:22.733Z,1012.93
2016-05-21T06:37:22.766Z,1012.92
2016-05-21T06:38:22.785Z,1012.94
2016-05-21T06:39:22.819Z,1012.96
2016-05-21T06:40:22.838Z,1013.01
2016-05-21T06:41:22.870Z,1012.98
2016-05-21T06:42:22.890Z,1013.02
2016-05-21T06:43:22.923Z,1013
2016-05-21T06:44:22.957Z,1012.98
2016-05-21T06:45:22.975Z,1013.03
2016-05-21T06:46:23.009Z,1013.05
2016-05-21T06:47:23.028Z,1013.02
2016-05-21T06:48:23.062Z,1013.07
2016-05-21T06:49:23.096Z,1013.09
2016-05-21T06:50:23.114Z,1013.1
2016-05-21T06:51:23.148Z,1013.08
2016-05-21T06:52:23.166Z,1013.1
2016-05-21T06:53:23.200Z,1013.07
2016-05-21T06:54:23.234Z,1013.04
2016-05-21T06:55:23.253Z,1013.05
2016-05-21T06:56:23.302Z,1013.04
2016-05-21T06:57:23.305Z,1013.03
2016-05-21T06:58:23.339Z,1013
2016-05-21T06:59:23.356Z,1013.01
2016-05-21T07:00:23.391Z,1013.04
2016-05-21T07:01:23.425Z,1013.01
2016-05-21T07:02:23.443Z,1012.95
2016-05-21T07:03:23.477Z,1012.94
2016-05-21T07:04:23.511Z,1012.95
2016-05-21T07:05:23.530Z,1012.98
2016-05-21T07:06:23.547Z,1012.99
2016-05-21T07:07:23.582Z,1012.96
2016-05-21T07:08:23.616Z,1013
2016-05-21T07:09:23.633Z,1012.98
2016-05-21T07:10:23.667Z,1012.96
2016-05-21T07:11:23.686Z,1012.98
2016-05-21T07:12:23.720Z,1012.95
2016-05-21T07:13:23.754Z,1013.01
2016-05-21T07:14:23.788Z,1013.05
2016-05-21T07:15:23.806Z,1013.05
2016-05-21T07:16:23.840Z,1013.04
2016-05-21T07:17:23.859Z,1013.1
2016-05-21T07:18:23.893Z,1013.07
2016-05-21T07:19:23.910Z,1013.07
2016-05-21T07:20:23.945Z,1013.12
2016-05-21T07:21:23.979Z,1013.13
2016-05-21T07:22:23.997Z,1013.06
2016-05-21T07:23:24.031Z,1013.1
2016-05-21T07:24:24.048Z,1013.09
2016-05-21T07:25:24.084Z,1013.1
2016-05-21T07:26:24.179Z,1013.07
2016-05-21T07:27:24.135Z,1013.12
2016-05-21T07:28:24.170Z,1013.13
2016-05-21T07:29:24.187Z,1013.12
2016-05-21T07:30:24.222Z,1013.15
2016-05-21T07:31:24.256Z,1013.15
2016-05-21T07:32:24.289Z,1013.13
2016-05-21T07:33:24.308Z,1013.15
2016-05-21T07:34:24.341Z,1013.16
2016-05-21T07:35:24.360Z,1013.16
2016-05-21T07:36:24.394Z,1013.14
2016-05-21T07:37:24.662Z,1013.14
2016-05-21T07:38:24.443Z,1013.14
2016-05-21T07:39:24.477Z,1013.19
2016-05-21T07:40:24.511Z,1013.15
2016-05-21T07:41:24.530Z,1013.16
2016-05-21T07:42:24.548Z,1013.19
2016-05-21T07:43:24.582Z,1013.18
2016-05-21T07:44:24.616Z,1013.22
2016-05-21T07:45:24.649Z,1013.19
2016-05-21T07:46:24.668Z,1013.16
2016-05-21T07:47:24.687Z,1013.15
2016-05-21T07:48:24.721Z,1013.19
2016-05-21T07:49:24.754Z,1013.17
2016-05-21T07:50:24.773Z,1013.19
2016-05-21T07:51:24.807Z,1013.17
2016-05-21T07:52:24.825Z,1013.17
2016-05-21T07:53:24.858Z,1013.2
2016-05-21T07:54:24.893Z,1013.21
2016-05-21T07:55:24.926Z,1013.22
2016-05-21T07:56:24.945Z,1013.24
2016-05-21T07:57:24.979Z,1013.26
2016-05-21T07:58:24.997Z,1013.21
2016-05-21T07:59:25.031Z,1013.2
2016-05-21T08:00:25.050Z,1013.14
2016-05-21T08:01:25.084Z,1013.13
2016-05-21T08:02:25.117Z,1013.12
2016-05-21T08:03:25.136Z,1013.08
2016-05-21T08:04:25.169Z,1013.03
2016-05-21T08:05:25.188Z,1013.07
2016-05-21T08:06:25.222Z,1013.04
2016-05-21T08:07:25.256Z,1013.04
2016-05-21T08:08:25.274Z,1012.96
2016-05-21T08:09:25.308Z,1012.99
2016-05-21T08:10:25.327Z,1012.94
2016-05-21T08:11:25.360Z,1012.98
2016-05-21T08:12:25.394Z,1012.95
2016-05-21T08:13:25.413Z,1012.91
2016-05-21T08:14:25.446Z,1012.95
2016-05-21T08:15:25.466Z,1012.92
2016-05-21T08:16:25.498Z,1012.93
2016-05-21T08:17:25.533Z,1012.94
2016-05-21T08:18:25.551Z,1012.95
2016-05-21T08:19:25.585Z,1012.95
2016-05-21T08:20:25.619Z,1012.95
2016-05-21T08:21:25.637Z,1012.99
2016-05-21T08:22:25.671Z,1013
2016-05-21T08:23:25.690Z,1012.99
2016-05-21T08:24:25.723Z,1012.99
2016-05-21T08:25:25.757Z,1013
2016-05-21T08:26:26.229Z,1012.97
2016-05-21T08:27:25.809Z,1012.96
2016-05-21T08:28:25.843Z,1012.98
2016-05-21T08:29:25.862Z,1012.96
2016-05-21T08:30:25.896Z,1012.98
2016-05-21T08:31:25.914Z,1012.95
2016-05-21T08:32:25.948Z,1012.9
2016-05-21T08:33:25.981Z,1012.92
2016-05-21T08:34:26.000Z,1012.89
2016-05-21T08:35:26.034Z,1012.85
2016-05-21T08:36:26.069Z,1012.91
2016-05-21T08:37:26.087Z,1012.94
2016-05-21T08:38:26.120Z,1012.93
2016-05-21T08:39:26.139Z,1012.9
2016-05-21T08:40:26.172Z,1012.94
2016-05-21T08:41:26.207Z,1012.89
2016-05-21T08:42:26.225Z,1012.9
2016-05-21T08:43:26.258Z,1012.84
2016-05-21T08:44:26.277Z,1012.87
2016-05-21T08:45:26.311Z,1012.79
2016-05-21T08:46:26.345Z,1012.82
2016-05-21T08:47:26.363Z,1012.79
2016-05-21T08:48:26.397Z,1012.81
2016-05-21T08:49:26.416Z,1012.83
2016-05-21T08:50:26.449Z,1012.78
2016-05-21T08:51:26.484Z,1012.79
2016-05-21T08:52:26.501Z,1012.77
2016-05-21T08:53:26.535Z,1012.76
2016-05-21T08:54:26.570Z,1012.72
2016-05-21T08:55:26.588Z,1012.78
2016-05-21T08:56:26.965Z,1012.7
2016-05-21T08:57:26.640Z,1012.71
2016-05-21T08:58:26.674Z,1012.71
2016-05-21T08:59:26.709Z,1012.7
2016-05-21T09:00:26.726Z,1012.7
2016-05-21T09:01:26.761Z,1012.7
2016-05-21T09:02:26.794Z,1012.68
2016-05-21T09:03:26.813Z,1012.66
2016-05-21T09:04:26.847Z,1012.63
2016-05-21T09:05:26.864Z,1012.64
2016-05-21T09:06:26.900Z,1012.65
2016-05-21T09:07:26.933Z,1012.64
2016-05-21T09:08:26.951Z,1012.62
2016-05-21T09:09:26.986Z,1012.65
2016-05-21T09:10:27.004Z,1012.64
2016-05-21T09:11:27.038Z,1012.64
2016-05-21T09:12:27.072Z,1012.64
2016-05-21T09:13:27.089Z,1012.65
2016-05-21T09:14:27.124Z,1012.62
2016-05-21T09:15:27.158Z,1012.61
2016-05-21T09:16:27.176Z,1012.6
2016-05-21T09:17:27.210Z,1012.56
2016-05-21T09:18:27.266Z,1012.58
2016-05-21T09:19:27.306Z,1012.57
2016-05-21T09:20:27.360Z,1012.53
2016-05-21T09:21:27.400Z,1012.54
2016-05-21T09:22:27.455Z,1012.45
2016-05-21T09:23:27.495Z,1012.44
2016-05-21T09:24:27.522Z,1012.51
2016-05-21T09:25:27.564Z,1012.42
2016-05-21T09:26:27.590Z,1012.43
2016-05-21T09:27:27.631Z,1012.4
2016-05-21T09:28:27.667Z,1012.38
2016-05-21T09:29:27.688Z,1012.38
2016-05-21T09:30:27.725Z,1012.29
2016-05-21T09:31:27.761Z,1012.35
2016-05-21T09:32:27.783Z,1012.29
2016-05-21T09:33:27.818Z,1012.32
2016-05-21T09:34:27.852Z,1012.31
2016-05-21T09:35:27.873Z,1012.3
2016-05-21T09:36:27.907Z,1012.22
2016-05-21T09:37:27.927Z,1012.3
2016-05-21T09:38:27.961Z,1012.24
2016-05-21T09:39:27.981Z,1012.27
2016-05-21T09:40:28.014Z,1012.31
2016-05-21T09:41:28.048Z,1012.28
2016-05-21T09:42:28.068Z,1012.28
2016-05-21T09:43:28.102Z,1012.26
2016-05-21T09:44:28.135Z,1012.26
2016-05-21T09:45:28.153Z,1012.25
2016-05-21T09:46:28.187Z,1012.25
2016-05-21T09:47:28.206Z,1012.26
2016-05-21T09:48:28.240Z,1012.27
2016-05-21T09:49:28.274Z,1012.23
2016-05-21T09:50:28.291Z,1012.28
2016-05-21T09:51:28.326Z,1012.27
2016-05-21T09:52:28.359Z,1012.17
2016-05-21T09:53:28.394Z,1012.2
2016-05-21T09:54:28.411Z,1012.18
2016-05-21T09:55:28.430Z,1012.18
2016-05-21T09:56:28.980Z,1012.15
2016-05-21T09:57:28.482Z,1012.13
2016-05-21T09:58:28.516Z,1012.11
2016-05-21T09:59:28.550Z,1012.07
2016-05-21T10:00:28.585Z,1012.09
2016-05-21T10:01:28.602Z,1012.13
2016-05-21T10:02:28.636Z,1012.07
2016-05-21T10:03:28.655Z,1012.13
2016-05-21T10:04:28.689Z,1012.09
2016-05-21T10:05:28.723Z,1012.11
2016-05-21T10:06:28.741Z,1012.06
2016-05-21T10:07:28.775Z,1012.09
2016-05-21T10:08:28.809Z,1012.09
2016-05-21T10:09:28.843Z,1012.12
2016-05-21T10:10:28.862Z,1012.07
2016-05-21T10:11:28.895Z,1012.09
2016-05-21T10:12:28.913Z,1012.08
2016-05-21T10:13:28.948Z,1012.07
2016-05-21T10:14:28.965Z,1012.04
2016-05-21T10:15:29.000Z,1012.07
2016-05-21T10:16:29.017Z,1012.01
2016-05-21T10:17:29.052Z,1011.98
2016-05-21T10:18:29.086Z,1012.01
2016-05-21T10:19:29.103Z,1012
2016-05-21T10:20:29.138Z,1011.99
2016-05-21T10:21:29.157Z,1012.01
2016-05-21T10:22:29.190Z,1012
2016-05-21T10:23:29.225Z,1012.01
2016-05-21T10:24:29.243Z,1012.01
2016-05-21T10:25:29.277Z,1011.99
2016-05-21T10:26:29.310Z,1011.97
2016-05-21T10:27:29.328Z,1012.03
2016-05-21T10:28:29.363Z,1012.01
2016-05-21T10:29:29.381Z,1012.02
2016-05-21T10:30:29.415Z,1012
2016-05-21T10:31:29.449Z,1012.04
2016-05-21T10:32:29.467Z,1012.06
2016-05-21T10:33:29.502Z,1012.02
2016-05-21T10:34:29.535Z,1012.02
2016-05-21T10:35:29.554Z,1011.98
2016-05-21T10:36:29.588Z,1011.96
2016-05-21T10:37:29.606Z,1011.94
2016-05-21T10:38:29.640Z,1011.9
2016-05-21T10:39:29.674Z,1011.89
2016-05-21T10:40:29.693Z,1011.95
2016-05-21T10:41:29.726Z,1011.9
2016-05-21T10:42:29.743Z,1011.94
2016-05-21T10:43:29.778Z,1011.98
2016-05-21T10:44:29.812Z,1011.95
2016-05-21T10:45:29.831Z,1011.97
2016-05-21T10:46:29.864Z,1011.97
2016-05-21T10:47:29.898Z,1012
2016-05-21T10:48:29.917Z,1011.95
2016-05-21T10:49:29.951Z,1011.95
2016-05-21T10:50:29.969Z,1011.95
2016-05-21T10:51:30.003Z,1011.98
2016-05-21T10:52:30.037Z,1011.94
2016-05-21T10:53:30.056Z,1012.03
2016-05-21T10:54:30.089Z,1011.98
2016-05-21T10:55:30.123Z,1011.96
2016-05-21T10:56:30.142Z,1012
2016-05-21T10:57:30.176Z,1011.98
2016-05-21T10:58:30.193Z,1011.98
2016-05-21T10:59:30.228Z,1012
2016-05-21T11:00:30.261Z,1011.94
2016-05-21T11:01:30.280Z,1011.92
2016-05-21T11:02:30.313Z,1011.96
2016-05-21T11:03:30.333Z,1011.96
2016-05-21T11:04:30.366Z,1011.94
2016-05-21T11:05:30.399Z,1011.96
2016-05-21T11:06:30.418Z,1011.94
2016-05-21T11:07:30.452Z,1011.93
2016-05-21T11:08:30.471Z,1011.86
2016-05-21T11:09:30.504Z,1011.92
2016-05-21T11:10:30.538Z,1011.86
2016-05-21T11:11:30.557Z,1011.86
2016-05-21T11:12:30.591Z,1011.87
2016-05-21T11:13:30.624Z,1011.87
2016-05-21T11:14:30.643Z,1011.83
2016-05-21T11:15:30.677Z,1011.85
2016-05-21T11:16:30.695Z,1011.87
2016-05-21T11:17:30.729Z,1011.86
2016-05-21T11:18:30.763Z,1011.87
2016-05-21T11:19:30.781Z,1011.87
2016-05-21T11:20:30.815Z,1011.85
2016-05-21T11:21:30.834Z,1011.83
2016-05-21T11:22:30.867Z,1011.81
2016-05-21T11:23:30.901Z,1011.75
2016-05-21T11:24:30.920Z,1011.69
2016-05-21T11:25:30.969Z,1011.66
2016-05-21T11:26:30.987Z,1011.63
2016-05-21T11:27:31.005Z,1011.66
2016-05-21T11:28:31.040Z,1011.62
2016-05-21T11:29:31.058Z,1011.63
2016-05-21T11:30:31.092Z,1011.57
2016-05-21T11:31:31.125Z,1011.49
2016-05-21T11:32:31.144Z,1011.48
2016-05-21T11:33:31.178Z,1011.43
2016-05-21T11:34:31.213Z,1011.43
2016-05-21T11:35:31.230Z,1011.41
2016-05-21T11:36:31.264Z,1011.41
2016-05-21T11:37:31.299Z,1011.4
2016-05-21T11:38:31.317Z,1011.38
2016-05-21T11:39:31.351Z,1011.37
2016-05-21T11:40:31.369Z,1011.37
2016-05-21T11:41:31.418Z,1011.29
2016-05-21T11:42:31.421Z,1011.28
2016-05-21T11:43:31.454Z,1011.3
2016-05-21T11:44:31.490Z,1011.34
2016-05-21T11:45:31.507Z,1011.34
2016-05-21T11:46:31.541Z,1011.29
2016-05-21T11:47:31.576Z,1011.29
2016-05-21T11:48:31.610Z,1011.31
2016-05-21T11:49:31.628Z,1011.31
2016-05-21T11:50:31.646Z,1011.28
2016-05-21T11:51:31.695Z,1011.31
2016-05-21T11:52:31.714Z,1011.31
2016-05-21T11:53:31.732Z,1011.28
2016-05-21T11:54:31.766Z,1011.28
2016-05-21T11:55:31.784Z,1011.27
2016-05-21T11:56:31.818Z,1011.33
2016-05-21T11:57:31.853Z,1011.31
2016-05-21T11:58:31.870Z,1011.27
2016-05-21T11:59:31.905Z,1011.26
2016-05-21T12:00:31.922Z,1011.33
2016-05-21T12:01:31.956Z,1011.28
2016-05-21T12:02:31.990Z,1011.31
2016-05-21T12:03:32.009Z,1011.26
2016-05-21T12:04:32.044Z,1011.29
2016-05-21T12:05:32.061Z,1011.3
2016-05-21T12:06:32.094Z,1011.28
2016-05-21T12:07:32.129Z,1011.23
2016-05-21T12:08:32.147Z,1011.3